Time;durP1;ratioP1;P1;durP2;ratioP2;P2;SDS_P1;SDS_P2;PMS_P1;PMS_P2;Temp;Humidity;BMP_temperature;BMP_pressure;BME280_temperature;BME280_humidity;BME280_pressure;Samples;Min_cycle;Max_cycle;Signal;HPM_P1;HPM_P2
2022/11/19 00:00:36;;;;;;;;;;;;;;;4.74;100.00;100683.28;5010874;28;19924;-63
2022/11/19 00:03:01;;;;;;;;;;;;;;;4.58;100.00;100677.72;5010615;28;20392;-65
2022/11/19 00:05:26;;;;;;;;;;;;;;;4.50;100.00;100678.25;5010958;28;19959;-63
2022/11/19 00:07:52;;;;;;;;;;;;;;;4.46;100.00;100686.19;5009216;28;19913;-64
2022/11/19 00:10:17;;;;;;;;;;;;;;;4.40;100.00;100689.19;5010422;28;19914;-63
2022/11/19 00:12:54;;;;;;;;;;;;;;;4.43;100.00;100686.75;5008720;28;19989;-64
2022/11/19 00:15:20;;;;;;;;;;;;;;;4.33;100.00;100684.78;5010610;28;19913;-64
2022/11/19 00:17:45;;;;;;;;;;;;;;;4.30;100.00;100699.00;5010360;28;19917;-66
2022/11/19 00:20:11;;;;;;;;;;;;;;;4.30;100.00;100700.94;5011318;28;19917;-67
2022/11/19 00:22:36;;;;;;;;;;;;;;;4.28;100.00;100701.22;5011318;28;19929;-67
2022/11/19 00:25:01;;;;;;;;;;;;;;;4.29;100.00;100697.38;5011201;28;19925;-67
2022/11/19 00:27:26;;;;;;;;;;;;;;;4.32;100.00;100696.84;5010965;28;19968;-66
2022/11/19 00:29:51;;;;;;;;;;;;;;;4.35;100.00;100698.19;5010676;28;19939;-66
2022/11/19 00:32:17;;;;;;;;;;;;;;;4.35;100.00;100703.69;5010813;28;19964;-67
2022/11/19 00:34:42;;;;;;;;;;;;;;;4.29;100.00;100694.66;5010946;28;20358;-66
2022/11/19 00:37:07;;;;;;;;;;;;;;;4.23;100.00;100709.38;5002763;28;20334;-67
2022/11/19 00:39:32;;;;;;;;;;;;;;;4.16;100.00;100709.63;5010618;28;19913;-67
2022/11/19 00:41:57;;;;;;;;;;;;;;;4.02;100.00;100708.47;5011025;28;19913;-66
2022/11/19 00:44:22;;;;;;;;;;;;;;;3.98;100.00;100702.72;5010463;28;19913;-66
2022/11/19 00:46:48;;;;;;;;;;;;;;;4.02;100.00;100709.28;5010246;28;19989;-67
2022/11/19 00:49:13;;;;;;;;;;;;;;;4.02;100.00;100703.81;5010181;28;19913;-67
2022/11/19 00:51:38;;;;;;;;;;;;;;;4.09;100.00;100708.25;5010598;28;19968;-67
2022/11/19 00:54:03;;;;;;;;;;;;;;;4.09;100.00;100709.06;5010740;28;19913;-67
2022/11/19 00:56:29;;;;;;;;;;;;;;;4.01;100.00;100706.81;5010934;28;19940;-67
2022/11/19 00:58:55;;;;;;;;;;;;;;;3.99;100.00;100714.47;5009377;28;20537;-67
2022/11/19 01:01:21;;;;;;;;;;;;;;;3.88;100.00;100716.34;5010465;28;20000;-67
2022/11/19 01:03:46;;;;;;;;;;;;;;;3.87;100.00;100715.50;5010784;28;20004;-67
2022/11/19 01:06:13;;;;;;;;;;;;;;;3.80;100.00;100709.44;5011619;28;20011;-67
2022/11/19 01:08:38;;;;;;;;;;;;;;;3.83;100.00;100711.66;5012073;28;20395;-66
2022/11/19 01:11:07;;;;;;;;;;;;;;;3.86;100.00;100713.03;5013877;28;19959;-67
2022/11/19 01:13:33;;;;;;;;;;;;;;;3.94;100.00;100720.72;5013698;28;19927;-64
2022/11/19 01:15:58;;;;;;;;;;;;;;;3.86;100.00;100721.25;5013567;28;20342;-65
2022/11/19 01:18:23;;;;;;;;;;;;;;;3.90;100.00;100731.38;5013376;28;20036;-64
2022/11/19 01:20:49;;;;;;;;;;;;;;;3.84;100.00;100732.47;5013723;28;19913;-66
2022/11/19 01:23:14;;;;;;;;;;;;;;;3.78;100.00;100730.75;5013917;28;20312;-66
2022/11/19 01:25:39;;;;;;;;;;;;;;;3.76;100.00;100730.22;5014048;28;19917;-64
2022/11/19 01:28:05;;;;;;;;;;;;;;;3.78;100.00;100736.22;5013876;28;19913;-64
2022/11/19 01:30:30;;;;;;;;;;;;;;;3.78;100.00;100740.88;5012084;28;20006;-64
2022/11/19 01:32:55;;;;;;;;;;;;;;;3.67;100.00;100746.28;5005890;28;20465;-65
2022/11/19 01:35:21;;;;;;;;;;;;;;;3.62;100.00;100735.31;5013459;28;20161;-64
2022/11/19 01:37:46;;;;;;;;;;;;;;;3.65;100.00;100736.69;5013436;28;19957;-66
2022/11/19 01:40:11;;;;;;;;;;;;;;;3.59;100.00;100749.50;5013595;28;20387;-65
2022/11/19 01:42:49;;;;;;;;;;;;;;;3.64;100.00;100757.75;5013652;28;20429;-64
2022/11/19 01:45:28;;;;;;;;;;;;;;;3.56;100.00;100761.81;5014140;28;19944;-64
2022/11/19 01:47:55;;;;;;;;;;;;;;;3.61;100.00;100760.19;5013395;28;20359;-63
2022/11/19 01:50:21;;;;;;;;;;;;;;;3.59;100.00;100761.25;5013271;28;19919;-65
2022/11/19 01:52:47;;;;;;;;;;;;;;;3.54;100.00;100761.22;5012806;28;19921;-64
2022/11/19 01:55:12;;;;;;;;;;;;;;;3.57;100.00;100763.47;5012192;28;19937;-65
2022/11/19 01:57:38;;;;;;;;;;;;;;;3.55;100.00;100764.78;5013050;28;20056;-64
2022/11/19 02:00:04;;;;;;;;;;;;;;;3.51;100.00;100774.63;5013238;28;19913;-63
2022/11/19 02:02:29;;;;;;;;;;;;;;;3.46;100.00;100767.19;5012648;28;20008;-63
2022/11/19 02:04:56;;;;;;;;;;;;;;;3.50;100.00;100770.22;5013127;28;20437;-63
2022/11/19 02:07:27;;;;;;;;;;;;;;;3.52;100.00;100770.78;5013090;28;20015;-63
2022/11/19 02:09:53;;;;;;;;;;;;;;;3.48;100.00;100780.59;5012902;28;19917;-63
2022/11/19 02:12:37;;;;;;;;;;;;;;;3.45;100.00;100776.47;5013636;28;20266;-63
2022/11/19 02:15:14;;;;;;;;;;;;;;;3.48;100.00;100788.78;5013499;28;19991;-65
2022/11/19 02:17:44;;;;;;;;;;;;;;;3.47;100.00;100784.41;5018928;23;19929;-56
2022/11/19 02:20:48;;;;;;;;;;;;;;;3.40;100.00;100782.72;4992840;28;19971;-55
2022/11/19 02:23:13;;;;;;;;;;;;;;;3.36;100.00;100795.25;4932833;29;20005;-54
2022/11/19 02:25:41;;;;;;;;;;;;;;;3.36;100.00;100791.72;4932945;29;19998;-57
2022/11/19 02:28:12;;;;;;;;;;;;;;;3.28;100.00;100791.09;4953756;28;19922;-55
2022/11/19 02:30:40;;;;;;;;;;;;;;;3.24;100.00;100791.88;4992827;28;19918;-56
2022/11/19 02:33:12;;;;;;;;;;;;;;;3.21;100.00;100792.38;4993113;28;20366;-55
2022/11/19 02:35:40;;;;;;;;;;;;;;;3.14;100.00;100791.75;4992608;28;19917;-55
2022/11/19 02:38:08;;;;;;;;;;;;;;;3.16;100.00;100789.59;4992287;28;19914;-55
2022/11/19 02:40:39;;;;;;;;;;;;;;;2.97;100.00;100793.50;4992559;28;19925;-56
2022/11/19 02:43:07;;;;;;;;;;;;;;;2.90;100.00;100795.63;4992709;28;19936;-56
2022/11/19 02:45:34;;;;;;;;;;;;;;;2.90;100.00;100792.88;4993090;28;19917;-57
2022/11/19 02:48:04;;;;;;;;;;;;;;;2.92;100.00;100795.34;4993484;28;19913;-56
2022/11/19 02:50:34;;;;;;;;;;;;;;;2.96;100.00;100791.03;4992815;28;20417;-56
2022/11/19 02:53:01;;;;;;;;;;;;;;;2.98;100.00;100791.59;4992331;28;20030;-56
2022/11/19 02:55:26;;;;;;;;;;;;;;;2.99;100.00;100787.78;4992769;28;20005;-56
2022/11/19 02:57:59;;;;;;;;;;;;;;;3.00;100.00;100797.63;4993023;28;20004;-56
2022/11/19 03:06:15;;;;;;;;;;;;;;;2.90;100.00;100797.50;4992270;28;20372;-56
2022/11/19 03:08:40;;;;;;;;;;;;;;;2.77;100.00;100796.84;4992113;28;19921;-56
2022/11/19 03:11:11;;;;;;;;;;;;;;;2.64;100.00;100799.94;4991606;28;19988;-56
2022/11/19 03:16:40;;;;;;;;;;;;;;;2.56;100.00;100805.84;4991826;28;19916;-55
2022/11/19 03:19:10;;;;;;;;;;;;;;;2.59;100.00;100808.09;4992025;28;20075;-62
2022/11/19 03:21:44;;;;;;;;;;;;;;;2.54;100.00;100808.00;4991888;28;19918;-57
2022/11/19 03:24:14;;;;;;;;;;;;;;;2.53;100.00;100807.19;4984567;28;19973;-56
2022/11/19 03:26:53;;;;;;;;;;;;;;;2.56;100.00;100816.78;4991947;28;19921;-56
2022/11/19 03:29:20;;;;;;;;;;;;;;;2.56;100.00;100812.13;4991957;28;19937;-55
2022/11/19 03:31:48;;;;;;;;;;;;;;;2.54;100.00;100816.19;4992443;28;19914;-56
2022/11/19 03:34:17;;;;;;;;;;;;;;;2.50;100.00;100835.00;4991833;28;20008;-55
2022/11/19 03:36:43;;;;;;;;;;;;;;;2.52;100.00;100823.81;4992449;28;20298;-54
2022/11/19 03:39:11;;;;;;;;;;;;;;;2.58;100.00;100815.44;4992451;28;20033;-55
2022/11/19 03:41:38;;;;;;;;;;;;;;;2.58;100.00;100815.44;4992428;28;19913;-55
2022/11/19 03:44:06;;;;;;;;;;;;;;;2.59;100.00;100819.81;4991801;28;20338;-56
2022/11/19 03:46:33;;;;;;;;;;;;;;;2.59;100.00;100825.28;4991848;28;20004;-56
2022/11/19 03:48:59;;;;;;;;;;;;;;;2.61;100.00;100823.13;4991611;28;19922;-54
2022/11/19 03:51:33;;;;;;;;;;;;;;;2.68;100.00;100816.66;4991431;28;19953;-53
2022/11/19 03:53:58;;;;;;;;;;;;;;;2.65;100.00;100818.81;4990733;28;19921;-55
2022/11/19 03:56:25;;;;;;;;;;;;;;;2.58;100.00;100822.81;4991431;28;19914;-55
2022/11/19 03:58:52;;;;;;;;;;;;;;;2.57;100.00;100824.72;4991601;28;19914;-55
2022/11/19 04:01:17;;;;;;;;;;;;;;;2.64;100.00;100821.78;4991706;28;19922;-55
2022/11/19 04:04:34;;;;;;;;;;;;;;;2.58;100.00;100831.81;4991589;28;20378;-55
2022/11/19 04:06:28;;;;;;;;;;;;;;;2.60;100.00;100832.41;4991579;28;19918;-54
2022/11/19 04:08:53;;;;;;;;;;;;;;;2.62;100.00;100834.88;4991634;28;19975;-56
2022/11/19 04:11:18;;;;;;;;;;;;;;;2.63;100.00;100833.78;4990967;28;20000;-56
2022/11/19 04:13:43;;;;;;;;;;;;;;;2.49;100.00;100842.38;4991601;28;20388;-56
2022/11/19 04:16:08;;;;;;;;;;;;;;;2.46;100.00;100837.41;4991310;28;19914;-54
2022/11/19 04:18:33;;;;;;;;;;;;;;;2.41;100.00;100837.31;4983465;28;19922;-56
2022/11/19 04:20:59;;;;;;;;;;;;;;;2.39;100.00;100844.97;4991763;28;19922;-55
2022/11/19 04:23:24;;;;;;;;;;;;;;;2.37;100.00;100841.66;4991912;28;19940;-55
2022/11/19 04:25:49;;;;;;;;;;;;;;;2.23;100.00;100849.38;4991412;28;19914;-56
2022/11/19 04:28:14;;;;;;;;;;;;;;;2.17;100.00;100866.75;4991721;28;20332;-55
2022/11/19 04:30:40;;;;;;;;;;;;;;;2.14;100.00;100865.31;4991683;28;19914;-54
2022/11/19 04:33:05;;;;;;;;;;;;;;;2.10;100.00;100858.72;4992140;28;19913;-55
2022/11/19 04:35:30;;;;;;;;;;;;;;;2.12;100.00;100864.78;4992057;28;20222;-54
2022/11/19 04:37:55;;;;;;;;;;;;;;;2.09;100.00;100867.97;4991569;28;19996;-55
2022/11/19 04:40:20;;;;;;;;;;;;;;;2.10;100.00;100872.38;4991311;28;19921;-54
2022/11/19 04:42:46;;;;;;;;;;;;;;;2.14;100.00;100872.69;4993513;28;19918;-56
2022/11/19 04:45:11;;;;;;;;;;;;;;;2.10;100.00;100874.25;4995503;28;19913;-56
2022/11/19 04:47:36;;;;;;;;;;;;;;;2.09;100.00;100880.78;4995276;28;20265;-56
2022/11/19 04:50:02;;;;;;;;;;;;;;;2.05;100.00;100879.66;4995321;28;20285;-57
2022/11/19 04:52:27;;;;;;;;;;;;;;;2.01;100.00;100885.59;4995322;28;20400;-56
2022/11/19 04:54:52;;;;;;;;;;;;;;;2.02;100.00;100878.25;4995188;28;19956;-56
2022/11/19 04:57:17;;;;;;;;;;;;;;;1.96;100.00;100884.69;4993985;28;19941;-57
2022/11/19 04:59:42;;;;;;;;;;;;;;;1.94;100.00;100881.38;4995243;28;20366;-55
2022/11/19 05:02:08;;;;;;;;;;;;;;;2.04;100.00;100887.00;4995137;28;19913;-57
2022/11/19 05:04:33;;;;;;;;;;;;;;;2.00;100.00;100883.94;4995171;28;19960;-56
2022/11/19 05:06:58;;;;;;;;;;;;;;;2.13;100.00;100879.22;4994947;28;19914;-56
2022/11/19 05:09:23;;;;;;;;;;;;;;;2.05;100.00;100885.91;4995197;28;19968;-55
2022/11/19 05:11:48;;;;;;;;;;;;;;;2.05;100.00;100888.66;4995059;28;19917;-54
2022/11/19 05:14:13;;;;;;;;;;;;;;;2.11;100.00;100895.03;4990492;28;19940;-56
2022/11/19 05:16:39;;;;;;;;;;;;;;;1.97;100.00;100898.09;4990552;28;19918;-56
2022/11/19 05:19:04;;;;;;;;;;;;;;;1.96;100.00;100901.03;4975592;28;20262;-56
2022/11/19 05:21:30;;;;;;;;;;;;;;;1.98;100.00;100905.22;4972715;28;20450;-57
2022/11/19 05:23:55;;;;;;;;;;;;;;;1.97;100.00;100917.19;4974691;28;19972;-61
2022/11/19 05:26:20;;;;;;;;;;;;;;;1.99;100.00;100919.66;4975675;28;20290;-58
2022/11/19 05:28:45;;;;;;;;;;;;;;;1.98;100.00;100929.75;4975656;28;20417;-57
2022/11/19 05:31:10;;;;;;;;;;;;;;;1.97;100.00;100925.38;4975080;28;20366;-56
2022/11/19 05:33:36;;;;;;;;;;;;;;;1.99;100.00;100933.31;4975248;28;19997;-57
2022/11/19 05:36:01;;;;;;;;;;;;;;;2.02;100.00;100927.38;4974923;28;20016;-56
2022/11/19 05:38:27;;;;;;;;;;;;;;;2.00;100.00;100927.59;4974999;28;19917;-56
2022/11/19 05:40:52;;;;;;;;;;;;;;;2.05;100.00;100932.31;4973222;28;19918;-58
2022/11/19 05:43:17;;;;;;;;;;;;;;;1.95;100.00;100941.16;4975179;28;19914;-55
2022/11/19 05:45:42;;;;;;;;;;;;;;;1.93;100.00;100939.75;4975189;28;20032;-57
2022/11/19 05:48:07;;;;;;;;;;;;;;;1.88;100.00;100940.50;4975206;28;19918;-56
2022/11/19 05:50:33;;;;;;;;;;;;;;;1.83;100.00;100945.84;4975310;28;19977;-56
2022/11/19 05:52:58;;;;;;;;;;;;;;;1.75;100.00;100948.97;4974329;28;20396;-55
2022/11/19 05:55:23;;;;;;;;;;;;;;;1.79;100.00;100947.41;4987132;28;19961;-55
2022/11/19 05:57:48;;;;;;;;;;;;;;;1.70;100.00;100939.59;4993951;28;19921;-54
2022/11/19 06:00:15;;;;;;;;;;;;;;;1.74;100.00;100942.69;4994069;28;19917;-54
2022/11/19 06:02:40;;;;;;;;;;;;;;;1.71;100.00;100940.44;4993973;28;19921;-56
2022/11/19 06:05:05;;;;;;;;;;;;;;;1.69;100.00;100937.97;4992485;28;19953;-55
2022/11/19 06:07:30;;;;;;;;;;;;;;;1.66;100.00;100937.63;4994004;28;19924;-54
2022/11/19 06:09:56;;;;;;;;;;;;;;;1.69;100.00;100953.50;4989544;28;20325;-53
2022/11/19 06:12:21;;;;;;;;;;;;;;;1.68;100.00;100957.28;4993820;28;19917;-56
2022/11/19 06:14:47;;;;;;;;;;;;;;;1.67;100.00;100955.63;4993821;28;20455;-54
2022/11/19 06:17:12;;;;;;;;;;;;;;;1.64;100.00;100961.59;4992656;28;19914;-54
2022/11/19 06:19:37;;;;;;;;;;;;;;;1.71;100.00;100963.09;4993732;28;19991;-54
2022/11/19 06:22:02;;;;;;;;;;;;;;;1.62;100.00;100969.19;4994063;28;19913;-55
2022/11/19 06:24:28;;;;;;;;;;;;;;;1.57;100.00;100961.75;4994448;28;19928;-54
2022/11/19 06:26:54;;;;;;;;;;;;;;;1.59;100.00;100964.22;4994191;28;20313;-52
2022/11/19 06:29:19;;;;;;;;;;;;;;;1.59;100.00;100969.66;4992617;28;19917;-55
2022/11/19 06:31:45;;;;;;;;;;;;;;;1.68;100.00;100979.13;4992427;28;19914;-54
2022/11/19 06:34:10;;;;;;;;;;;;;;;1.66;100.00;100984.81;4994121;28;19920;-55
2022/11/19 06:36:35;;;;;;;;;;;;;;;1.54;100.00;100995.78;4993668;28;20377;-54
2022/11/19 06:39:01;;;;;;;;;;;;;;;1.53;100.00;100994.13;4993757;28;19996;-54
2022/11/19 06:41:26;;;;;;;;;;;;;;;1.48;100.00;101001.38;4993896;28;19949;-53
2022/11/19 06:43:51;;;;;;;;;;;;;;;1.44;100.00;101001.03;4993823;28;19998;-55
2022/11/19 06:46:17;;;;;;;;;;;;;;;1.37;100.00;101003.88;4993271;28;20373;-55
2022/11/19 06:48:42;;;;;;;;;;;;;;;1.37;100.00;101005.78;4992104;28;19921;-55
2022/11/19 06:51:07;;;;;;;;;;;;;;;1.41;100.00;100998.78;4991893;28;19914;-56
2022/11/19 06:53:33;;;;;;;;;;;;;;;1.45;100.00;101008.13;4992295;28;20345;-56
2022/11/19 06:55:59;;;;;;;;;;;;;;;1.45;99.93;101008.13;4992173;28;19913;-55
2022/11/19 06:58:24;;;;;;;;;;;;;;;1.39;99.95;101004.47;4992383;28;19924;-57
2022/11/19 07:00:50;;;;;;;;;;;;;;;1.34;100.00;101007.06;4992398;28;19917;-55
2022/11/19 07:03:15;;;;;;;;;;;;;;;1.42;100.00;101015.97;4992252;28;20255;-56
2022/11/19 07:05:40;;;;;;;;;;;;;;;1.40;100.00;101021.66;4988089;28;19918;-56
2022/11/19 07:08:06;;;;;;;;;;;;;;;1.37;100.00;101014.78;4990624;28;19918;-55
2022/11/19 07:10:32;;;;;;;;;;;;;;;1.36;100.00;101018.56;4991914;28;20385;-57
2022/11/19 07:12:58;;;;;;;;;;;;;;;1.34;100.00;101017.16;4992291;28;19920;-54
2022/11/19 07:15:23;;;;;;;;;;;;;;;1.38;100.00;101018.31;4992153;28;20357;-54
2022/11/19 07:17:48;;;;;;;;;;;;;;;1.48;100.00;101023.19;4992360;28;19956;-56
2022/11/19 07:20:13;;;;;;;;;;;;;;;1.44;99.82;101028.28;4992248;28;20393;-55
2022/11/19 07:22:39;;;;;;;;;;;;;;;1.42;98.67;101027.69;4992156;28;19922;-55
2022/11/19 07:25:04;;;;;;;;;;;;;;;1.40;99.73;101021.66;4991680;28;19914;-54
2022/11/19 07:27:29;;;;;;;;;;;;;;;1.31;99.52;101034.00;4991708;28;19917;-55
2022/11/19 07:29:55;;;;;;;;;;;;;;;1.23;99.33;101027.00;4991710;28;20595;-54
2022/11/19 07:32:20;;;;;;;;;;;;;;;1.18;99.65;101033.16;4991561;28;20016;-56
2022/11/19 07:34:45;;;;;;;;;;;;;;;1.20;99.14;101033.75;4991558;28;19918;-54
2022/11/19 07:37:10;;;;;;;;;;;;;;;1.18;98.68;101043.25;4991369;28;19921;-56
2022/11/19 07:39:36;;;;;;;;;;;;;;;1.18;99.15;101048.69;4991153;28;19918;-56
2022/11/19 07:44:45;;;;;;;;;;;;;;;1.21;98.68;101048.22;4991464;28;19924;-56
2022/11/19 07:47:10;;;;;;;;;;;;;;;1.21;100.00;101048.22;4990963;28;19922;-58
2022/11/19 07:49:36;;;;;;;;;;;;;;;1.24;99.43;101050.47;4990983;28;19924;-57
2022/11/19 07:52:01;;;;;;;;;;;;;;;1.33;99.59;101054.47;4989725;28;20366;-57
2022/11/19 07:54:26;;;;;;;;;;;;;;;1.35;99.16;101059.72;4991169;28;20374;-56
2022/11/19 07:56:51;;;;;;;;;;;;;;;1.35;98.94;101057.81;4990807;28;19914;-56
2022/11/19 07:59:16;;;;;;;;;;;;;;;1.34;99.32;101058.06;4988063;28;19917;-55
2022/11/19 08:01:42;;;;;;;;;;;;;;;1.35;99.65;101057.00;4989628;28;19929;-55
2022/11/19 08:04:07;;;;;;;;;;;;;;;1.35;99.74;101068.72;4990450;28;19929;-56
2022/11/19 08:06:33;;;;;;;;;;;;;;;1.34;98.37;101069.78;4990301;28;19917;-56
2022/11/19 08:08:59;;;;;;;;;;;;;;;1.31;98.11;101064.81;4990259;28;19924;-57
2022/11/19 08:11:24;;;;;;;;;;;;;;;1.31;97.74;101083.06;4990283;28;19914;-57
2022/11/19 08:13:49;;;;;;;;;;;;;;;1.24;97.94;101075.84;4990408;28;20361;-56
2022/11/19 08:19:05;;;;;;;;;;;;;;;1.37;98.99;101079.41;4991350;28;19929;-57
2022/11/19 08:21:31;;;;;;;;;;;;;;;1.35;98.17;101090.50;4992298;28;19920;-56
2022/11/19 08:23:56;;;;;;;;;;;;;;;1.40;98.70;101095.25;4991717;28;19917;-56
2022/11/19 08:26:21;;;;;;;;;;;;;;;1.35;98.05;101086.97;4991364;28;19917;-56
2022/11/19 08:28:46;;;;;;;;;;;;;;;1.35;98.50;101089.69;4991800;28;19917;-56
2022/11/19 08:31:12;;;;;;;;;;;;;;;1.34;98.15;101094.31;4985770;28;20005;-55
2022/11/19 08:33:37;;;;;;;;;;;;;;;1.31;97.57;101097.53;4972326;28;20349;-56
2022/11/19 08:36:03;;;;;;;;;;;;;;;1.36;98.31;101092.19;4972173;28;19914;-57
2022/11/19 08:38:28;;;;;;;;;;;;;;;1.37;98.75;101099.28;4972182;28;19914;-56
2022/11/19 08:42:58;;;;;;;;;;;;;;;1.47;99.17;101109.59;4972319;28;19961;-56
2022/11/19 08:43:39;;;;;;;;;;;;;;;1.58;98.71;101104.34;4972458;28;20000;-55
2022/11/19 08:46:04;;;;;;;;;;;;;;;1.58;98.16;101104.34;4972284;28;20293;-55
2022/11/19 08:48:29;;;;;;;;;;;;;;;1.54;97.83;101106.72;4972278;28;20543;-55
2022/11/19 08:50:54;;;;;;;;;;;;;;;1.50;97.92;101111.03;4972343;28;19918;-55
2022/11/19 08:53:20;;;;;;;;;;;;;;;1.56;98.56;101104.59;4971903;28;20581;-55
2022/11/19 08:55:49;;;;;;;;;;;;;;;1.65;97.86;101100.44;4966608;28;19924;-55
2022/11/19 08:58:14;;;;;;;;;;;;;;;1.45;95.47;101113.63;4972155;28;20021;-55
2022/11/19 09:00:39;;;;;;;;;;;;;;;1.45;96.42;101121.78;4972400;28;20406;-56
2022/11/19 09:03:05;;;;;;;;;;;;;;;1.31;96.20;101116.59;4972158;28;20366;-57
2022/11/19 09:05:30;;;;;;;;;;;;;;;1.33;97.44;101116.34;4971359;28;19968;-56
2022/11/19 09:07:55;;;;;;;;;;;;;;;1.38;96.82;101117.31;4965855;28;20012;-55
2022/11/19 09:10:21;;;;;;;;;;;;;;;1.41;95.82;101121.44;4963843;28;19949;-56
2022/11/19 09:12:46;;;;;;;;;;;;;;;1.34;96.23;101129.75;4962505;28;20305;-56
2022/11/19 09:15:11;;;;;;;;;;;;;;;1.28;95.93;101125.25;4960523;28;19918;-56
2022/11/19 09:17:37;;;;;;;;;;;;;;;1.26;96.86;101132.00;4962921;28;20013;-57
2022/11/19 09:20:02;;;;;;;;;;;;;;;1.28;96.84;101127.13;4967161;28;19929;-56
2022/11/19 09:22:27;;;;;;;;;;;;;;;1.31;97.92;101126.66;4972226;28;19917;-57
2022/11/19 09:24:52;;;;;;;;;;;;;;;1.35;96.86;101130.59;4969053;28;19926;-57
2022/11/19 09:27:18;;;;;;;;;;;;;;;1.38;97.25;101136.38;4964168;28;19918;-56
2022/11/19 09:29:43;;;;;;;;;;;;;;;1.38;97.01;101132.81;4966818;28;19914;-56
2022/11/19 09:32:08;;;;;;;;;;;;;;;1.46;96.42;101132.50;4963622;28;19914;-57
2022/11/19 09:34:39;;;;;;;;;;;;;;;1.38;96.42;101138.28;4962105;28;20367;-56
2022/11/19 09:37:04;;;;;;;;;;;;;;;1.37;95.45;101137.47;4956495;28;19914;-57
2022/11/19 09:39:29;;;;;;;;;;;;;;;1.44;96.75;101133.78;4956422;28;19976;-55
2022/11/19 09:42:21;;;;;;;;;;;;;;;1.54;97.58;101134.00;4956359;28;19914;-56
2022/11/19 09:45:05;;;;;;;;;;;;;;;1.53;96.17;101146.81;4963237;28;19922;-56
2022/11/19 09:47:49;;;;;;;;;;;;;;;1.78;96.18;101150.34;4965586;28;20009;-55
2022/11/19 09:50:17;;;;;;;;;;;;;;;1.66;94.02;101164.84;4964500;28;20017;-59
2022/11/19 09:52:54;;;;;;;;;;;;;;;1.53;93.05;101165.91;4975061;28;19918;-56
2022/11/19 09:55:31;;;;;;;;;;;;;;;1.49;94.47;101159.25;4963287;28;20005;-56
2022/11/19 09:57:57;;;;;;;;;;;;;;;1.50;94.38;101171.00;4963343;28;20363;-57
2022/11/19 10:00:25;;;;;;;;;;;;;;;1.52;94.55;101175.16;4955805;28;19951;-56
2022/11/19 10:02:52;;;;;;;;;;;;;;;1.50;94.72;101182.72;4955743;28;19918;-56
2022/11/19 10:05:25;;;;;;;;;;;;;;;1.56;93.41;101179.06;4955336;28;19921;-57
2022/11/19 10:08:09;;;;;;;;;;;;;;;1.38;92.27;101174.56;4955612;28;20460;-59
2022/11/19 10:10:41;;;;;;;;;;;;;;;1.40;93.57;101179.75;4955530;28;19918;-57
2022/11/19 10:13:12;;;;;;;;;;;;;;;1.35;92.27;101185.94;4955730;28;19954;-61
2022/11/19 10:15:49;;;;;;;;;;;;;;;1.36;93.49;101182.13;4955422;28;20017;-58
2022/11/19 10:18:23;;;;;;;;;;;;;;;1.37;94.07;101181.06;4953719;28;19919;-56
2022/11/19 10:20:48;;;;;;;;;;;;;;;1.31;91.38;101178.47;4964449;28;19922;-56
2022/11/19 10:23:17;;;;;;;;;;;;;;;1.22;93.61;101184.25;4962647;28;19918;-56
2022/11/19 10:25:46;;;;;;;;;;;;;;;1.27;93.59;101185.47;4961094;28;19949;-57
2022/11/19 10:28:18;;;;;;;;;;;;;;;1.31;93.93;101179.31;4961338;28;20023;-57
2022/11/19 10:30:47;;;;;;;;;;;;;;;1.42;93.90;101188.53;4958851;28;20339;-56
2022/11/19 10:33:15;;;;;;;;;;;;;;;1.48;93.28;101190.31;4954067;28;19973;-56
2022/11/19 10:35:47;;;;;;;;;;;;;;;1.53;94.86;101195.06;4954142;28;19915;-56
2022/11/19 10:38:18;;;;;;;;;;;;;;;1.63;94.94;101195.28;4952468;28;20374;-54
2022/11/19 10:40:54;;;;;;;;;;;;;;;1.65;92.18;101209.53;4953466;28;20387;-55
2022/11/19 10:43:36;;;;;;;;;;;;;;;1.49;91.83;101202.88;4954008;28;19958;-56
2022/11/19 10:46:03;;;;;;;;;;;;;;;1.44;91.62;101199.19;4949198;28;19965;-55
2022/11/19 10:48:36;;;;;;;;;;;;;;;1.37;91.55;101200.16;4952233;28;20457;-56
2022/11/19 10:51:01;;;;;;;;;;;;;;;1.33;91.90;101198.13;4952259;28;19918;-56
2022/11/19 10:53:32;;;;;;;;;;;;;;;1.31;90.64;101198.38;4950056;29;19918;-55
2022/11/19 10:56:05;;;;;;;;;;;;;;;1.31;92.56;101194.81;4952488;28;19918;-55
2022/11/19 10:58:59;;;;;;;;;;;;;;;1.36;92.26;101194.94;4952236;28;19914;-54
2022/11/19 11:01:30;;;;;;;;;;;;;;;1.42;92.75;101193.19;4944731;28;19918;-55
2022/11/19 11:04:06;;;;;;;;;;;;;;;1.48;91.65;101198.50;4953217;28;19991;-54
2022/11/19 11:07:01;;;;;;;;;;;;;;;1.39;91.83;101189.00;4959240;28;19918;-59
2022/11/19 11:09:29;;;;;;;;;;;;;;;1.41;92.83;101192.34;4952513;28;19979;-56
2022/11/19 11:14:52;;;;;;;;;;;;;;;1.51;92.10;101202.66;4962186;28;19925;-55
2022/11/19 11:17:24;;;;;;;;;;;;;;;1.48;91.81;101197.69;4960506;28;20024;-58
2022/11/19 11:20:07;;;;;;;;;;;;;;;1.49;91.66;101200.16;4961595;28;19919;-57
2022/11/19 11:22:32;;;;;;;;;;;;;;;1.40;90.63;101198.84;4961219;28;19956;-57
2022/11/19 11:24:58;;;;;;;;;;;;;;;1.40;90.52;101196.13;4960617;28;20313;-56
2022/11/19 11:27:27;;;;;;;;;;;;;;;1.36;91.64;101186.78;4957706;28;19928;-56
2022/11/19 11:30:05;;;;;;;;;;;;;;;1.47;92.21;101201.47;4961302;28;19964;-56
2022/11/19 11:32:31;;;;;;;;;;;;;;;1.43;90.77;101190.22;4963879;28;20338;-57
2022/11/19 11:34:57;;;;;;;;;;;;;;;1.31;88.44;101198.38;4967864;28;19929;-57
2022/11/19 11:37:23;;;;;;;;;;;;;;;1.19;88.10;101190.16;4972776;28;19918;-56
2022/11/19 11:39:51;;;;;;;;;;;;;;;1.19;89.53;101186.63;4972040;28;20456;-56
2022/11/19 11:42:17;;;;;;;;;;;;;;;1.18;88.36;101183.06;4969146;28;19966;-58
2022/11/19 11:44:53;;;;;;;;;;;;;;;1.13;87.68;101180.22;4971890;28;20433;-56
2022/11/19 11:47:20;;;;;;;;;;;;;;;1.12;89.01;101186.72;4971899;28;19921;-56
2022/11/19 11:49:48;;;;;;;;;;;;;;;1.21;89.27;101185.31;4971727;28;19918;-56
2022/11/19 11:52:16;;;;;;;;;;;;;;;1.32;90.21;101180.97;4970908;28;19949;-57
2022/11/19 11:54:59;;;;;;;;;;;;;;;1.43;88.52;101173.84;4969725;28;20001;-57
2022/11/19 11:57:25;;;;;;;;;;;;;;;1.36;89.76;101164.97;4972027;28;19918;-57
2022/11/19 11:59:50;;;;;;;;;;;;;;;1.47;89.53;101169.56;4972020;28;19914;-57
2022/11/19 12:02:34;;;;;;;;;;;;;;;1.51;90.05;101170.75;4988813;28;19925;-57
2022/11/19 12:05:09;;;;;;;;;;;;;;;1.55;90.01;101171.97;4991304;28;20384;-57
2022/11/19 12:07:35;;;;;;;;;;;;;;;1.63;90.74;101170.75;4990966;28;20032;-57
2022/11/19 12:10:03;;;;;;;;;;;;;;;1.62;88.16;101180.00;4990655;28;20556;-56
2022/11/19 12:12:36;;;;;;;;;;;;;;;1.58;88.94;101181.56;4990787;28;19925;-56
2022/11/19 12:15:05;;;;;;;;;;;;;;;1.54;87.61;101177.63;4990674;28;19917;-57
2022/11/19 12:17:41;;;;;;;;;;;;;;;1.49;88.06;101172.06;4990387;28;20397;-56
2022/11/19 12:20:16;;;;;;;;;;;;;;;1.54;90.00;101175.75;4990824;28;19937;-56
2022/11/19 12:23:01;;;;;;;;;;;;;;;1.59;89.80;101179.66;4990969;28;19964;-56
2022/11/19 12:25:38;;;;;;;;;;;;;;;1.66;90.13;101181.19;4990879;28;19992;-56
2022/11/19 12:28:26;;;;;;;;;;;;;;;1.55;87.55;101184.75;4991064;28;19917;-57
2022/11/19 12:30:57;;;;;;;;;;;;;;;1.56;87.96;101191.88;4991070;28;19962;-56
2022/11/19 12:33:31;;;;;;;;;;;;;;;1.52;87.88;101191.50;4989519;28;19917;-59
2022/11/19 12:36:12;;;;;;;;;;;;;;;1.49;87.22;101191.16;4980541;28;19925;-56
2022/11/19 12:38:55;;;;;;;;;;;;;;;1.51;87.79;101189.84;4971622;28;19918;-57
2022/11/19 12:41:20;;;;;;;;;;;;;;;1.54;89.66;101192.13;4971222;28;19925;-57
2022/11/19 12:44:02;;;;;;;;;;;;;;;1.62;89.45;101196.34;4971011;28;19917;-55
2022/11/19 12:46:50;;;;;;;;;;;;;;;1.60;87.00;101195.78;4970922;28;19967;-57
2022/11/19 12:49:21;;;;;;;;;;;;;;;1.64;88.59;101201.59;4970978;28;19914;-57
2022/11/19 12:51:53;;;;;;;;;;;;;;;1.66;88.81;101185.81;4969393;28;19961;-55
2022/11/19 12:54:36;;;;;;;;;;;;;;;1.71;89.90;101188.66;4969882;28;19928;-56
2022/11/19 12:57:23;;;;;;;;;;;;;;;1.76;88.05;101193.41;4970838;28;19918;-57
2022/11/19 12:59:51;;;;;;;;;;;;;;;1.75;88.06;101183.56;4971101;28;19922;-57
2022/11/19 13:02:26;;;;;;;;;;;;;;;1.73;89.02;101189.25;4971791;28;19920;-58